createdAt,value
2023-01-10T00:01:41.569Z,9.40
2023-01-10T00:04:08.256Z,9.40
2023-01-10T00:06:34.952Z,9.30
2023-01-10T00:09:01.631Z,9.30
2023-01-10T00:11:46.833Z,9.40
2023-01-10T00:14:13.531Z,9.40
2023-01-10T00:16:42.595Z,9.30
2023-01-10T00:19:10.709Z,9.30
2023-01-10T00:21:38.128Z,9.20
2023-01-10T00:24:21.764Z,9.20
2023-01-10T00:26:54.195Z,9.20
2023-01-10T00:29:25.273Z,9.20
2023-01-10T00:31:52.141Z,9.10
2023-01-10T00:34:18.865Z,9.30
2023-01-10T00:36:47.925Z,9.10
2023-01-10T00:39:16.241Z,9.20
2023-01-10T00:42:01.517Z,9.20
2023-01-10T00:44:28.235Z,9.20
2023-01-10T00:46:55.082Z,9.10
2023-01-10T00:49:21.762Z,9.10
2023-01-10T00:51:48.495Z,9.10
2023-01-10T00:54:15.536Z,9.10
2023-01-10T00:56:42.493Z,9.20
2023-01-10T00:59:09.484Z,9.10
2023-01-10T01:01:36.259Z,9.10
2023-01-10T01:04:04.081Z,9.20
2023-01-10T01:06:30.778Z,9.20
2023-01-10T01:08:57.482Z,9.20
2023-01-10T01:11:24.364Z,9.30
2023-01-10T01:13:51.791Z,9.30
2023-01-10T01:16:19.485Z,9.10
2023-01-10T01:18:46.304Z,9.10
2023-01-10T01:21:13.123Z,9.20
2023-01-10T01:23:39.884Z,9.20
2023-01-10T01:26:06.533Z,9.20
2023-01-10T01:28:33.267Z,9.10
2023-01-10T01:31:00.023Z,9.10
2023-01-10T01:33:26.826Z,9.10
2023-01-10T01:35:53.750Z,9.10
2023-01-10T01:38:20.394Z,9.20
2023-01-10T01:40:47.084Z,9.20
2023-01-10T01:43:28.681Z,9.20
2023-01-10T01:45:59.570Z,9.20
2023-01-10T01:48:32.575Z,9.20
2023-01-10T01:51:05.854Z,9.20
2023-01-10T01:53:55.409Z,9.10
2023-01-10T01:56:36.459Z,9.20
2023-01-10T01:59:08.415Z,9.20
2023-01-10T02:01:37.745Z,9.10
2023-01-10T02:04:18.802Z,9.10
2023-01-10T02:06:47.508Z,9.00
2023-01-10T02:09:42.823Z,9.10
2023-01-10T02:12:10.053Z,9.00
2023-01-10T02:14:37.965Z,9.00
2023-01-10T02:17:05.391Z,9.00
2023-01-10T02:19:35.040Z,9.00
2023-01-10T02:22:20.383Z,9.00
2023-01-10T02:25:12.106Z,9.10
2023-01-10T02:27:52.081Z,9.10
2023-01-10T02:30:36.797Z,9.10
2023-01-10T02:33:29.899Z,9.10
2023-01-10T02:36:20.143Z,9.00
2023-01-10T02:39:12.460Z,9.00
2023-01-10T02:42:09.686Z,9.10
2023-01-10T02:44:49.935Z,9.00
2023-01-10T02:47:16.769Z,9.10
2023-01-10T02:49:48.708Z,9.10
2023-01-10T02:52:26.172Z,9.10
2023-01-10T02:54:58.678Z,9.10
2023-01-10T02:57:56.173Z,9.00
2023-01-10T03:01:02.160Z,9.00
2023-01-10T03:03:57.100Z,9.00
2023-01-10T03:06:41.132Z,8.90
2023-01-10T03:09:29.769Z,9.00
2023-01-10T03:12:15.284Z,9.00
2023-01-10T03:14:44.988Z,9.00
2023-01-10T03:17:13.340Z,9.10
2023-01-10T03:19:46.473Z,9.00
2023-01-10T03:22:14.396Z,9.00
2023-01-10T03:24:44.620Z,9.00
2023-01-10T03:27:11.238Z,9.00
2023-01-10T03:29:56.513Z,9.00
2023-01-10T03:32:27.620Z,9.10
2023-01-10T03:34:55.344Z,9.10
2023-01-10T03:37:46.353Z,9.10
2023-01-10T03:40:28.704Z,9.10
2023-01-10T03:43:25.297Z,9.10
2023-01-10T03:45:59.121Z,9.10
2023-01-10T03:48:30.195Z,9.10
2023-01-10T03:50:58.936Z,9.30
2023-01-10T03:53:26.023Z,9.10
2023-01-10T03:55:52.720Z,9.00
2023-01-10T03:58:21.905Z,9.00
2023-01-10T04:00:49.202Z,9.00
2023-01-10T04:03:17.539Z,9.00
2023-01-10T04:05:44.360Z,9.00
2023-01-10T04:08:11.084Z,9.00
2023-01-10T04:10:38.126Z,8.90
2023-01-10T04:13:05.771Z,9.00
2023-01-10T04:15:32.569Z,8.90
2023-01-10T04:17:59.296Z,8.90
2023-01-10T04:20:26.629Z,9.00
2023-01-10T04:22:54.738Z,9.00
2023-01-10T04:25:22.774Z,8.90
2023-01-10T04:27:50.582Z,9.00
2023-01-10T04:30:18.240Z,8.90
2023-01-10T04:32:45.009Z,8.90
2023-01-10T04:35:11.672Z,8.90
2023-01-10T04:37:38.326Z,8.80
2023-01-10T04:40:06.318Z,8.80
2023-01-10T04:42:33.032Z,8.80
2023-01-10T04:44:59.706Z,8.90
2023-01-10T04:47:26.469Z,8.90
2023-01-10T04:49:53.131Z,8.80
2023-01-10T04:52:20.006Z,10.70
2023-01-10T04:54:46.808Z,9.00
2023-01-10T04:57:13.743Z,9.00
2023-01-10T04:59:40.517Z,9.00
2023-01-10T05:02:07.275Z,9.10
2023-01-10T05:04:34.079Z,9.10
2023-01-10T05:07:00.801Z,10.60
2023-01-10T05:09:27.592Z,9.20
2023-01-10T05:11:55.066Z,9.20
2023-01-10T05:14:22.000Z,9.30
2023-01-10T05:16:48.786Z,9.20
2023-01-10T05:19:15.576Z,9.20
2023-01-10T05:21:43.103Z,9.20
2023-01-10T05:24:10.200Z,9.30
2023-01-10T05:26:37.691Z,9.30
2023-01-10T05:29:04.507Z,9.30
2023-01-10T05:31:31.237Z,9.30
2023-01-10T05:33:58.011Z,9.30
2023-01-10T05:36:24.775Z,9.30
2023-01-10T05:38:51.451Z,9.20
2023-01-10T05:41:18.156Z,9.30
2023-01-10T05:43:44.844Z,9.20
2023-01-10T05:46:11.603Z,9.20
2023-01-10T05:48:38.421Z,9.20
2023-01-10T05:51:05.374Z,9.30
2023-01-10T05:53:32.096Z,9.30
2023-01-10T05:56:01.435Z,9.30
2023-01-10T05:58:31.591Z,9.30
2023-01-10T06:00:58.596Z,9.30
2023-01-10T06:03:26.538Z,9.80
2023-01-10T06:05:54.800Z,9.20
2023-01-10T06:08:22.426Z,9.30
2023-01-10T06:10:49.203Z,9.40
2023-01-10T06:13:16.187Z,9.30
2023-01-10T06:15:43.747Z,9.30
2023-01-10T06:18:12.029Z,9.20
2023-01-10T06:20:39.976Z,9.30
2023-01-10T06:23:07.211Z,9.30
2023-01-10T06:25:36.984Z,9.30
2023-01-10T06:28:04.179Z,9.30
2023-01-10T06:30:30.894Z,9.30
2023-01-10T06:33:02.519Z,9.30
2023-01-10T06:35:30.219Z,9.30
2023-01-10T06:37:57.121Z,9.20
2023-01-10T06:40:24.408Z,9.30
2023-01-10T06:42:51.305Z,9.30
2023-01-10T06:45:18.225Z,9.30
2023-01-10T06:47:44.983Z,9.40
2023-01-10T06:50:13.637Z,9.30
2023-01-10T06:52:40.893Z,9.30
2023-01-10T06:55:08.002Z,9.30
2023-01-10T06:57:35.656Z,9.30
2023-01-10T07:00:04.900Z,9.30
2023-01-10T07:02:31.722Z,9.30
2023-01-10T07:04:58.521Z,9.30
2023-01-10T07:07:25.295Z,9.30
2023-01-10T07:09:51.968Z,9.20
2023-01-10T07:12:18.752Z,9.30
2023-01-10T07:14:45.591Z,9.30
2023-01-10T07:17:12.302Z,9.30
2023-01-10T07:19:39.006Z,9.30
2023-01-10T07:22:05.829Z,9.30
2023-01-10T07:24:32.621Z,9.30
2023-01-10T07:27:00.147Z,9.30
2023-01-10T07:29:26.882Z,9.40
2023-01-10T07:31:55.426Z,9.30
2023-01-10T07:34:22.124Z,9.40
2023-01-10T07:36:49.051Z,9.30
2023-01-10T07:39:15.792Z,9.30
2023-01-10T07:41:42.499Z,9.30
2023-01-10T07:44:09.321Z,9.30
2023-01-10T07:46:36.019Z,9.40
2023-01-10T07:49:02.769Z,9.40
2023-01-10T07:51:29.575Z,9.50
2023-01-10T07:53:56.408Z,9.40
2023-01-10T07:56:23.121Z,9.40
2023-01-10T07:58:49.861Z,9.30
2023-01-10T08:01:16.977Z,9.40
2023-01-10T08:03:44.202Z,9.40
2023-01-10T08:06:11.244Z,9.40
2023-01-10T08:08:39.211Z,9.30
2023-01-10T08:11:06.582Z,9.30
2023-01-10T08:13:33.585Z,9.40
2023-01-10T08:16:03.917Z,9.40
2023-01-10T08:18:30.657Z,9.40
2023-01-10T08:20:58.060Z,9.30
2023-01-10T08:23:25.246Z,9.40
2023-01-10T08:25:52.237Z,9.30
2023-01-10T08:28:19.429Z,9.30
2023-01-10T08:30:46.235Z,9.20
2023-01-10T08:33:13.030Z,9.30
2023-01-10T08:35:42.229Z,9.40
2023-01-10T08:38:10.719Z,9.40
2023-01-10T08:40:37.644Z,9.30
2023-01-10T08:43:08.451Z,9.30
2023-01-10T08:45:37.301Z,9.40
2023-01-10T08:48:05.674Z,9.40
2023-01-10T08:50:33.028Z,9.40
2023-01-10T08:53:00.945Z,9.40
2023-01-10T08:55:30.976Z,9.40
2023-01-10T08:58:00.355Z,9.40
2023-01-10T09:00:27.548Z,9.40
2023-01-10T09:02:54.320Z,9.40
2023-01-10T09:05:27.379Z,9.40
2023-01-10T09:08:00.112Z,9.40
2023-01-10T09:10:28.046Z,9.40
2023-01-10T09:12:54.972Z,9.40
2023-01-10T09:15:27.623Z,9.40
2023-01-10T09:17:59.736Z,9.40
2023-01-10T09:20:28.836Z,9.40
2023-01-10T09:22:56.810Z,9.30
2023-01-10T09:25:24.236Z,9.40
2023-01-10T09:28:00.779Z,9.30
2023-01-10T09:30:28.775Z,9.40
2023-01-10T09:32:56.646Z,9.40
2023-01-10T09:35:25.414Z,9.40
2023-01-10T09:37:56.960Z,9.40
2023-01-10T09:40:53.431Z,9.50
2023-01-10T09:44:01.021Z,9.50
2023-01-10T09:47:06.002Z,9.50
2023-01-10T09:49:38.292Z,9.50
2023-01-10T09:52:11.253Z,9.50
2023-01-10T09:54:43.069Z,9.50
2023-01-10T09:57:17.354Z,9.50
2023-01-10T09:59:45.806Z,9.50
2023-01-10T10:02:18.638Z,9.80
2023-01-10T10:04:59.952Z,9.50
2023-01-10T10:07:26.841Z,9.50
2023-01-10T10:09:53.536Z,9.60
2023-01-10T10:12:34.993Z,9.60
2023-01-10T10:15:39.310Z,9.60
2023-01-10T10:18:31.999Z,9.60
2023-01-10T10:21:26.493Z,9.60
2023-01-10T10:24:14.262Z,9.60
2023-01-10T10:26:57.454Z,9.50
2023-01-10T10:29:38.407Z,9.60
2023-01-10T10:32:21.735Z,9.60
2023-01-10T10:35:10.493Z,9.60
2023-01-10T10:37:48.272Z,9.60
2023-01-10T10:40:19.614Z,9.60
2023-01-10T10:42:50.575Z,9.70
2023-01-10T10:45:42.720Z,9.70
2023-01-10T10:48:27.204Z,9.70
2023-01-10T10:51:23.504Z,9.70
2023-01-10T10:53:50.922Z,9.70
2023-01-10T10:56:22.539Z,9.70
2023-01-10T10:58:53.805Z,9.60
2023-01-10T11:01:21.444Z,9.60
2023-01-10T11:04:23.229Z,9.70
2023-01-10T11:06:50.955Z,9.70
2023-01-10T11:09:41.931Z,9.90
2023-01-10T11:12:18.469Z,9.70
2023-01-10T11:14:51.464Z,9.80
2023-01-10T11:17:22.754Z,9.80
2023-01-10T11:20:17.016Z,9.70
2023-01-10T11:22:50.908Z,9.80
2023-01-10T11:25:22.861Z,9.70
2023-01-10T11:27:57.066Z,9.80
2023-01-10T11:30:30.374Z,9.70
2023-01-10T11:33:00.758Z,9.70
2023-01-10T11:35:31.809Z,9.80
2023-01-10T11:38:19.950Z,9.80
2023-01-10T11:40:57.787Z,10.60
2023-01-10T11:43:27.413Z,9.90
2023-01-10T11:46:02.576Z,10.00
2023-01-10T11:49:04.270Z,10.00
2023-01-10T11:51:33.469Z,10.00
2023-01-10T11:54:03.356Z,10.00
2023-01-10T11:56:33.005Z,10.30
2023-01-10T11:59:09.494Z,10.00
2023-01-10T12:01:56.859Z,10.00
2023-01-10T12:04:25.294Z,10.10
2023-01-10T12:07:04.360Z,10.00
2023-01-10T12:09:37.514Z,10.00
2023-01-10T12:12:06.981Z,10.00
2023-01-10T12:14:33.960Z,10.00
2023-01-10T12:17:04.138Z,10.00
2023-01-10T12:19:31.106Z,10.00
2023-01-10T12:22:02.890Z,10.00
2023-01-10T12:24:35.460Z,10.00
2023-01-10T12:27:03.831Z,10.00
2023-01-10T12:29:39.960Z,10.90
2023-01-10T12:32:22.040Z,9.90
2023-01-10T12:34:58.593Z,9.70
2023-01-10T12:37:42.926Z,9.70
2023-01-10T12:40:18.493Z,9.70
2023-01-10T12:43:16.685Z,9.70
2023-01-10T12:45:56.808Z,9.60
2023-01-10T12:48:35.853Z,9.60
2023-01-10T12:51:07.393Z,9.60
2023-01-10T12:53:56.758Z,9.70
2023-01-10T12:56:24.006Z,9.70
2023-01-10T12:59:11.004Z,9.80
2023-01-10T13:01:43.480Z,9.70
2023-01-10T13:04:15.506Z,9.70
2023-01-10T13:06:44.046Z,9.60
2023-01-10T13:09:18.411Z,9.70
2023-01-10T13:11:58.130Z,9.80
2023-01-10T13:14:44.444Z,9.80
2023-01-10T13:17:32.668Z,9.90
2023-01-10T13:20:23.710Z,9.90
2023-01-10T13:22:52.585Z,10.00
2023-01-10T13:25:37.864Z,10.00
2023-01-10T13:28:07.435Z,10.00
2023-01-10T13:30:38.073Z,10.00
2023-01-10T13:33:08.438Z,10.10
2023-01-10T13:35:41.581Z,10.00
2023-01-10T13:38:19.035Z,10.00
2023-01-10T13:41:04.776Z,10.00
2023-01-10T13:43:39.226Z,10.00
2023-01-10T13:46:15.297Z,10.00
2023-01-10T13:49:03.475Z,10.10
2023-01-10T13:51:31.505Z,10.10
2023-01-10T13:54:25.314Z,10.20
2023-01-10T13:56:52.043Z,10.20
2023-01-10T13:59:46.397Z,10.20
2023-01-10T14:02:29.553Z,10.30
2023-01-10T14:05:03.108Z,10.40
2023-01-10T14:07:50.833Z,10.40
2023-01-10T14:10:30.423Z,10.30
2023-01-10T14:13:09.284Z,10.30
2023-01-10T14:15:44.533Z,10.30
2023-01-10T14:18:25.361Z,10.30
2023-01-10T14:21:04.045Z,10.30
2023-01-10T14:23:43.278Z,10.40
2023-01-10T14:26:23.392Z,10.40
2023-01-10T14:28:51.456Z,10.40
2023-01-10T14:31:25.542Z,10.50
2023-01-10T14:33:53.434Z,10.40
2023-01-10T14:36:27.996Z,10.40
2023-01-10T14:38:59.852Z,10.40
2023-01-10T14:41:37.081Z,10.30
2023-01-10T14:44:17.026Z,11.70
2023-01-10T14:46:49.253Z,10.20
2023-01-10T14:49:26.487Z,10.20
2023-01-10T14:52:22.413Z,10.30
2023-01-10T14:55:16.458Z,10.20
2023-01-10T14:58:01.182Z,10.20
2023-01-10T15:00:34.018Z,10.20
2023-01-10T15:03:04.070Z,10.20
2023-01-10T15:05:37.195Z,10.30
2023-01-10T15:08:22.663Z,10.30
2023-01-10T15:10:53.152Z,10.30
2023-01-10T15:13:24.114Z,10.30
2023-01-10T15:15:51.662Z,10.20
2023-01-10T15:18:40.091Z,10.20
2023-01-10T15:21:07.610Z,10.20
2023-01-10T15:23:39.941Z,10.10
2023-01-10T15:26:11.148Z,10.10
2023-01-10T15:28:38.507Z,11.80
2023-01-10T15:31:08.028Z,10.00
2023-01-10T15:33:36.631Z,10.70
2023-01-10T15:36:16.197Z,10.00
2023-01-10T15:38:45.645Z,10.00
2023-01-10T15:41:19.356Z,10.00
2023-01-10T15:43:47.046Z,10.00
2023-01-10T15:46:26.914Z,9.90
2023-01-10T15:49:02.968Z,10.00
2023-01-10T15:51:39.694Z,9.90
2023-01-10T15:54:18.817Z,11.30
2023-01-10T15:56:51.557Z,9.90
2023-01-10T15:59:28.283Z,9.90
2023-01-10T16:02:16.144Z,9.80
2023-01-10T16:04:44.697Z,9.80
2023-01-10T16:07:21.359Z,9.70
2023-01-10T16:09:58.182Z,9.80
2023-01-10T16:13:01.113Z,9.80
2023-01-10T16:15:32.088Z,9.80
2023-01-10T16:17:59.155Z,9.80
2023-01-10T16:20:34.805Z,9.80
2023-01-10T16:23:03.485Z,9.70
2023-01-10T16:25:36.281Z,9.70
2023-01-10T16:28:03.152Z,9.70
2023-01-10T16:30:32.669Z,9.70
2023-01-10T16:33:02.950Z,9.60
2023-01-10T16:35:29.673Z,9.60
2023-01-10T16:37:57.995Z,9.70
2023-01-10T16:40:29.167Z,9.60
2023-01-10T16:43:15.131Z,9.60
2023-01-10T16:45:41.990Z,9.50
2023-01-10T16:48:09.494Z,9.60
2023-01-10T16:50:36.243Z,9.50
2023-01-10T16:53:06.131Z,9.50
2023-01-10T16:55:44.025Z,9.50
2023-01-10T16:58:12.810Z,9.40
2023-01-10T17:00:40.975Z,9.30
2023-01-10T17:03:28.199Z,9.40
2023-01-10T17:05:54.907Z,9.30
2023-01-10T17:08:23.681Z,9.30
2023-01-10T17:10:59.925Z,9.30
2023-01-10T17:13:31.189Z,9.30
2023-01-10T17:15:58.798Z,9.30
2023-01-10T17:18:28.561Z,9.40
2023-01-10T17:20:57.456Z,9.20
2023-01-10T17:23:26.385Z,9.20
2023-01-10T17:26:04.359Z,9.20
2023-01-10T17:28:32.077Z,9.20
2023-01-10T17:30:59.542Z,9.20
2023-01-10T17:33:27.421Z,9.30
2023-01-10T17:35:56.830Z,9.10
2023-01-10T17:38:25.603Z,9.10
2023-01-10T17:40:52.995Z,9.10
2023-01-10T17:43:21.036Z,9.10
2023-01-10T17:45:50.172Z,9.20
2023-01-10T17:48:18.603Z,9.20
2023-01-10T17:50:47.557Z,9.20
2023-01-10T17:53:15.247Z,9.30
2023-01-10T17:55:49.332Z,9.20
2023-01-10T17:58:17.653Z,9.20
2023-01-10T18:00:45.899Z,9.20
2023-01-10T18:03:12.878Z,10.10
2023-01-10T18:05:40.038Z,9.20
2023-01-10T18:08:08.041Z,9.20
2023-01-10T18:10:35.120Z,9.20
2023-01-10T18:13:03.479Z,9.30
2023-01-10T18:15:30.498Z,9.20
2023-01-10T18:17:58.002Z,9.20
2023-01-10T18:20:24.972Z,9.20
2023-01-10T18:23:10.452Z,9.20
2023-01-10T18:25:37.218Z,9.10
2023-01-10T18:28:04.085Z,9.30
2023-01-10T18:30:30.914Z,9.20
2023-01-10T18:32:57.739Z,9.20
2023-01-10T18:35:25.709Z,9.10
2023-01-10T18:37:52.575Z,9.20
2023-01-10T18:40:19.330Z,9.10
2023-01-10T18:42:52.189Z,9.10
2023-01-10T18:45:19.474Z,9.00
2023-01-10T18:47:51.905Z,9.00
2023-01-10T18:50:18.817Z,8.90
2023-01-10T18:52:45.502Z,8.80
2023-01-10T18:55:12.338Z,8.80
2023-01-10T18:57:39.005Z,8.70
2023-01-10T19:00:06.832Z,8.70
2023-01-10T19:02:33.618Z,8.70
2023-01-10T19:05:00.491Z,8.70
2023-01-10T19:07:28.216Z,8.60
2023-01-10T19:09:55.542Z,8.70
2023-01-10T19:12:22.384Z,8.70
2023-01-10T19:14:49.103Z,8.60
2023-01-10T19:17:17.138Z,8.60
2023-01-10T19:19:44.008Z,8.60
2023-01-10T19:22:10.683Z,8.60
2023-01-10T19:24:37.815Z,8.60
2023-01-10T19:27:05.435Z,8.60
2023-01-10T19:29:32.346Z,8.60
2023-01-10T19:32:00.728Z,8.60
2023-01-10T19:34:27.512Z,8.70
2023-01-10T19:36:54.205Z,8.70
2023-01-10T19:39:21.173Z,8.80
2023-01-10T19:41:47.892Z,10.30
2023-01-10T19:44:16.680Z,8.80
2023-01-10T19:46:45.355Z,8.80
2023-01-10T19:49:17.588Z,8.70
2023-01-10T19:51:48.054Z,8.70
2023-01-10T19:54:15.148Z,8.70
2023-01-10T19:56:44.313Z,8.70
2023-01-10T19:59:13.763Z,8.60
2023-01-10T20:01:40.973Z,8.70
2023-01-10T20:04:07.738Z,8.80
2023-01-10T20:06:38.067Z,8.70
2023-01-10T20:09:06.083Z,8.70
2023-01-10T20:11:37.931Z,8.70
2023-01-10T20:14:13.751Z,9.30
2023-01-10T20:16:41.725Z,8.70
2023-01-10T20:19:10.555Z,8.80
2023-01-10T20:21:38.509Z,8.80
2023-01-10T20:24:13.850Z,8.80
2023-01-10T20:26:40.767Z,8.90
2023-01-10T20:29:07.608Z,8.80
2023-01-10T20:31:37.679Z,8.90
2023-01-10T20:34:04.789Z,8.80
2023-01-10T20:36:31.802Z,8.90
2023-01-10T20:38:58.728Z,8.90
2023-01-10T20:41:28.362Z,9.00
2023-01-10T20:43:56.164Z,8.90
2023-01-10T20:46:29.464Z,8.90
2023-01-10T20:48:57.298Z,8.90
2023-01-10T20:51:35.396Z,9.00
2023-01-10T20:54:04.111Z,8.90
2023-01-10T20:56:32.229Z,8.90
2023-01-10T20:58:59.300Z,9.20
2023-01-10T21:01:35.677Z,9.00
2023-01-10T21:04:07.185Z,9.00
2023-01-10T21:06:35.334Z,9.10
2023-01-10T21:09:03.525Z,9.10
2023-01-10T21:11:30.413Z,9.20
2023-01-10T21:13:57.297Z,9.30
2023-01-10T21:16:25.331Z,9.20
2023-01-10T21:18:52.401Z,9.80
2023-01-10T21:21:22.633Z,9.30
2023-01-10T21:23:49.895Z,9.30
2023-01-10T21:26:17.721Z,9.30
2023-01-10T21:28:49.131Z,9.20
2023-01-10T21:31:19.208Z,9.20
2023-01-10T21:33:46.378Z,9.40
2023-01-10T21:36:13.836Z,9.30
2023-01-10T21:38:41.758Z,9.30
2023-01-10T21:41:35.800Z,9.30
2023-01-10T21:44:06.995Z,9.30
2023-01-10T21:46:39.051Z,9.20
2023-01-10T21:49:05.820Z,9.20
2023-01-10T21:51:33.154Z,9.20
2023-01-10T21:53:59.947Z,9.10
2023-01-10T21:56:26.740Z,9.20
2023-01-10T21:58:53.485Z,9.20
2023-01-10T22:01:20.261Z,9.20
2023-01-10T22:03:47.178Z,9.00
2023-01-10T22:06:14.020Z,9.20
2023-01-10T22:08:41.437Z,9.30
2023-01-10T22:11:10.531Z,9.30
2023-01-10T22:13:37.882Z,9.30
2023-01-10T22:16:05.090Z,9.30
2023-01-10T22:18:32.141Z,9.30
2023-01-10T22:20:59.189Z,9.30
2023-01-10T22:23:28.816Z,10.20
2023-01-10T22:26:07.111Z,9.30
2023-01-10T22:28:34.236Z,9.30
2023-01-10T22:31:01.959Z,9.20
2023-01-10T22:33:30.989Z,9.20
2023-01-10T22:36:05.235Z,9.20
2023-01-10T22:38:35.152Z,9.30
2023-01-10T22:41:09.801Z,9.30
2023-01-10T22:43:37.116Z,9.20
2023-01-10T22:46:04.432Z,9.20
2023-01-10T22:48:31.606Z,9.20
2023-01-10T22:50:59.693Z,9.20
2023-01-10T22:53:27.315Z,9.30
2023-01-10T22:56:00.212Z,9.30
2023-01-10T22:58:27.122Z,9.20
2023-01-10T23:00:54.158Z,9.70
2023-01-10T23:03:21.340Z,9.10
2023-01-10T23:05:53.654Z,9.10
2023-01-10T23:08:20.369Z,9.10
2023-01-10T23:10:48.283Z,9.10
2023-01-10T23:13:15.937Z,9.20
2023-01-10T23:15:42.825Z,9.30
2023-01-10T23:18:09.594Z,9.30
2023-01-10T23:20:36.429Z,9.30
2023-01-10T23:23:03.090Z,9.30
2023-01-10T23:25:29.816Z,9.30
2023-01-10T23:27:56.595Z,9.30
2023-01-10T23:30:26.719Z,9.50
2023-01-10T23:32:53.846Z,9.30
2023-01-10T23:35:20.540Z,9.30
2023-01-10T23:37:47.622Z,9.30
2023-01-10T23:40:14.400Z,9.30
2023-01-10T23:42:41.115Z,9.40
2023-01-10T23:45:08.716Z,9.40
2023-01-10T23:47:35.590Z,9.40
2023-01-10T23:50:02.555Z,9.40
2023-01-10T23:52:29.256Z,9.50
2023-01-10T23:54:56.131Z,9.50
2023-01-10T23:57:22.959Z,9.50
2023-01-10T23:59:49.671Z,9.50
